createdAt,value
2019-02-15T00:02:03.163Z,102311.80
2019-02-15T00:05:03.166Z,102321.70
2019-02-15T00:10:52.505Z,102311.17
2019-02-15T00:13:44.488Z,102310.78
2019-02-15T00:16:36.667Z,102311.69
2019-02-15T00:19:22.165Z,102304.41
2019-02-15T00:22:36.985Z,102305.20
2019-02-15T00:25:40.794Z,102302.09
2019-02-15T00:28:34.919Z,102299.89
2019-02-15T00:31:43.884Z,102293.39
2019-02-15T00:33:56.231Z,102294.19
2019-02-15T00:36:56.356Z,102283.68
2019-02-15T00:39:42.764Z,102282.77
2019-02-15T00:45:24.845Z,102290.20
2019-02-15T00:48:22.730Z,102275.52
2019-02-15T00:51:03.751Z,102276.70
2019-02-15T00:54:09.996Z,102275.38
2019-02-15T00:57:35.606Z,102280.59
2019-02-15T01:00:49.837Z,102275.78
2019-02-15T01:03:38.823Z,102273.20
2019-02-15T01:06:25.083Z,102272.42
2019-02-15T01:09:25.247Z,102271.52
2019-02-15T01:12:25.635Z,102269.96
2019-02-15T01:15:07.995Z,102269.16
2019-02-15T01:18:09.091Z,102262.41
2019-02-15T01:20:51.487Z,102267.84
2019-02-15T01:23:35.473Z,102268.61
2019-02-15T01:26:13.484Z,102267.22
2019-02-15T01:29:09.133Z,102257.61
2019-02-15T01:32:09.158Z,102252.92
2019-02-15T01:34:41.063Z,102259.84
2019-02-15T01:37:25.203Z,102257.37
2019-02-15T01:40:03.213Z,102255.55
2019-02-15T01:42:56.068Z,102255.01
2019-02-15T01:45:38.628Z,102255.27
2019-02-15T01:48:15.516Z,102246.20
2019-02-15T01:51:01.849Z,102247.91
2019-02-15T01:53:49.527Z,102244.16
2019-02-15T01:56:30.686Z,102239.38
2019-02-15T01:59:18.033Z,102238.08
2019-02-15T02:02:00.644Z,102239.39
2019-02-15T02:04:56.772Z,102237.95
2019-02-15T02:07:43.994Z,102235.88
2019-02-15T02:10:33.564Z,102235.49
2019-02-15T02:16:13.784Z,102230.03
2019-02-15T02:19:02.037Z,102224.56
2019-02-15T02:21:46.885Z,102228.33
2019-02-15T02:24:39.461Z,102223.02
2019-02-15T02:27:20.217Z,102218.45
2019-02-15T02:29:54.739Z,102226.66
2019-02-15T02:32:40.993Z,102218.22
2019-02-15T02:35:26.714Z,102216.53
2019-02-15T02:38:14.143Z,102212.10
2019-02-15T02:41:16.879Z,102215.88
2019-02-15T02:44:00.007Z,102212.36
2019-02-15T02:46:40.789Z,102214.56
2019-02-15T02:49:23.506Z,102208.08
2019-02-15T02:52:01.043Z,102212.23
2019-02-15T02:54:42.236Z,102207.05
2019-02-15T02:57:17.650Z,102214.60
2019-02-15T03:00:04.756Z,102211.48
2019-02-15T03:02:40.273Z,102205.91
2019-02-15T03:05:21.698Z,102206.30
2019-02-15T03:08:05.981Z,102207.08
2019-02-15T03:10:53.142Z,102207.21
2019-02-15T03:13:33.835Z,102207.47
2019-02-15T03:16:23.180Z,102206.69
2019-02-15T03:19:14.939Z,102206.56
2019-02-15T03:21:45.411Z,102199.56
2019-02-15T03:24:33.858Z,102203.33
2019-02-15T03:27:07.375Z,102200.22
2019-02-15T03:29:43.401Z,102194.51
2019-02-15T03:32:15.065Z,102200.88
2019-02-15T03:34:50.773Z,102200.48
2019-02-15T03:37:47.625Z,102211.39
2019-02-15T03:40:26.763Z,102204.25
2019-02-15T03:43:01.687Z,102200.20
2019-02-15T03:45:33.665Z,102197.60
2019-02-15T03:48:07.064Z,102194.52
2019-02-15T03:50:39.947Z,102196.59
2019-02-15T03:53:14.275Z,102188.80
2019-02-15T03:55:57.358Z,102194.77
2019-02-15T03:58:40.341Z,102192.31
2019-02-15T04:01:16.920Z,102191.66
2019-02-15T04:04:02.686Z,102195.94
2019-02-15T04:06:40.247Z,102195.03
2019-02-15T04:09:37.862Z,102193.08
2019-02-15T04:12:55.079Z,102189.96
2019-02-15T04:15:51.637Z,102191.78
2019-02-15T04:18:27.577Z,102191.00
2019-02-15T04:20:59.417Z,102190.36
2019-02-15T04:23:44.569Z,102192.44
2019-02-15T04:26:16.321Z,102194.39
2019-02-15T04:28:59.325Z,102201.11
2019-02-15T04:31:40.686Z,102193.19
2019-02-15T04:34:22.485Z,102199.29
2019-02-15T04:36:55.719Z,102199.16
2019-02-15T04:39:27.198Z,102200.98
2019-02-15T04:41:58.703Z,102202.14
2019-02-15T04:44:30.100Z,102207.08
2019-02-15T04:47:01.421Z,102205.52
2019-02-15T04:49:32.810Z,102207.62
2019-02-15T04:52:04.224Z,102211.65
2019-02-15T04:54:35.764Z,102204.38
2019-02-15T04:57:07.222Z,102210.32
2019-02-15T04:59:42.576Z,102206.42
2019-02-15T05:02:40.469Z,102206.42
2019-02-15T05:05:12.220Z,102209.28
2019-02-15T05:07:43.605Z,102209.41
2019-02-15T05:10:14.960Z,102206.30
2019-02-15T05:12:46.581Z,102210.97
2019-02-15T05:15:17.891Z,102218.23
2019-02-15T05:17:49.440Z,102218.49
2019-02-15T05:20:20.899Z,102213.56
2019-02-15T05:22:53.305Z,102214.73
2019-02-15T05:25:24.710Z,102213.94
2019-02-15T05:27:55.992Z,102219.78
2019-02-15T05:30:27.404Z,102213.94
2019-02-15T05:32:58.739Z,102221.46
2019-02-15T05:35:30.036Z,102224.05
2019-02-15T05:38:01.401Z,102225.34
2019-02-15T05:40:32.680Z,102222.87
2019-02-15T05:43:04.129Z,102231.17
2019-02-15T05:45:35.410Z,102233.51
2019-02-15T05:48:06.845Z,102227.14
2019-02-15T05:50:38.101Z,102233.74
2019-02-15T05:53:09.496Z,102227.00
2019-02-15T05:55:43.612Z,102230.36
2019-02-15T05:58:15.002Z,102225.58
2019-02-15T06:00:46.277Z,102228.82
2019-02-15T06:03:17.590Z,102235.05
2019-02-15T06:05:50.063Z,102234.54
2019-02-15T06:08:21.328Z,102237.40
2019-02-15T06:10:52.619Z,102232.05
2019-02-15T06:13:25.016Z,102233.48
2019-02-15T06:15:56.376Z,102232.95
2019-02-15T06:18:27.674Z,102229.84
2019-02-15T06:20:59.060Z,102232.30
2019-02-15T06:23:30.368Z,102239.42
2019-02-15T06:26:01.711Z,102243.46
2019-02-15T06:28:33.067Z,102233.59
2019-02-15T06:31:04.644Z,102244.86
2019-02-15T06:33:36.042Z,102241.11
2019-02-15T06:36:07.354Z,102243.82
2019-02-15T06:38:38.726Z,102240.48
2019-02-15T06:41:12.279Z,102245.30
2019-02-15T06:43:43.139Z,102244.91
2019-02-15T06:46:14.570Z,102247.50
2019-02-15T06:48:47.002Z,102252.66
2019-02-15T06:51:18.358Z,102248.66
2019-02-15T06:53:49.662Z,102253.84
2019-02-15T06:56:21.022Z,102258.36
2019-02-15T06:58:55.007Z,102257.17
2019-02-15T07:01:27.975Z,102267.67
2019-02-15T07:04:01.162Z,102271.84
2019-02-15T07:06:32.595Z,102273.41
2019-02-15T07:09:04.954Z,102276.91
2019-02-15T07:11:36.385Z,102277.17
2019-02-15T07:14:07.767Z,102280.27
2019-02-15T07:16:39.233Z,102276.91
2019-02-15T07:19:10.604Z,102271.61
2019-02-15T07:21:42.024Z,102273.95
2019-02-15T07:24:13.307Z,102279.41
2019-02-15T07:26:44.764Z,102276.44
2019-02-15T07:29:16.047Z,102268.92
2019-02-15T07:31:47.476Z,102274.52
2019-02-15T07:34:19.087Z,102270.37
2019-02-15T07:36:51.576Z,102260.66
2019-02-15T07:39:22.964Z,102261.58
2019-02-15T07:41:54.301Z,102264.44
2019-02-15T07:44:25.722Z,102264.47
2019-02-15T07:46:57.069Z,102261.23
2019-02-15T07:49:28.422Z,102263.95
2019-02-15T07:51:59.696Z,102270.31
2019-02-15T07:54:31.016Z,102266.55
2019-02-15T07:57:03.227Z,102272.52
2019-02-15T07:59:34.662Z,102264.98
2019-02-15T08:02:06.181Z,102264.19
2019-02-15T08:04:37.568Z,102271.16
2019-02-15T08:07:08.929Z,102265.96
2019-02-15T08:09:40.456Z,102268.16
2019-02-15T08:12:11.751Z,102267.86
2019-02-15T08:14:43.144Z,102262.65
2019-02-15T08:17:14.490Z,102264.94
2019-02-15T08:19:45.922Z,102264.80
2019-02-15T08:22:17.293Z,102261.13
2019-02-15T08:24:48.639Z,102262.29
2019-02-15T08:27:19.967Z,102256.28
2019-02-15T08:29:51.242Z,102250.27
2019-02-15T08:32:22.549Z,102257.77
2019-02-15T08:34:53.828Z,102252.02
2019-02-15T08:37:25.121Z,102247.54
2019-02-15T08:39:56.385Z,102256.46
2019-02-15T08:42:27.760Z,102245.74
2019-02-15T08:44:59.024Z,102235.30
2019-02-15T08:47:30.386Z,102231.75
2019-02-15T08:50:01.653Z,102236.76
2019-02-15T08:52:33.038Z,102233.20
2019-02-15T08:55:06.383Z,102224.95
2019-02-15T08:57:37.820Z,102229.56
2019-02-15T09:00:12.478Z,102234.80
2019-02-15T09:02:43.985Z,102234.75
2019-02-15T09:05:15.357Z,102228.02
2019-02-15T09:07:46.730Z,102232.00
2019-02-15T09:10:18.158Z,102230.64
2019-02-15T09:12:49.621Z,102229.06
2019-02-15T09:15:23.982Z,102231.64
2019-02-15T09:17:55.276Z,102228.31
2019-02-15T09:20:26.537Z,102237.48
2019-02-15T09:22:57.874Z,102235.56
2019-02-15T09:25:32.590Z,102233.01
2019-02-15T09:28:14.920Z,102225.63
2019-02-15T09:30:48.055Z,102229.81
2019-02-15T09:33:19.496Z,102224.07
2019-02-15T09:35:51.006Z,102221.84
2019-02-15T09:38:22.463Z,102225.11
2019-02-15T09:40:53.793Z,102223.66
2019-02-15T09:43:25.200Z,102224.42
2019-02-15T09:45:56.619Z,102224.05
2019-02-15T09:48:27.924Z,102219.77
2019-02-15T09:50:59.317Z,102219.10
2019-02-15T09:53:30.600Z,102219.67
2019-02-15T09:56:01.931Z,102224.52
2019-02-15T09:58:34.214Z,102217.52
2019-02-15T10:01:05.546Z,102215.53
2019-02-15T10:03:36.853Z,102224.02
2019-02-15T10:06:08.201Z,102220.72
2019-02-15T10:08:39.638Z,102219.23
2019-02-15T10:11:13.791Z,102218.33
2019-02-15T10:13:45.123Z,102217.92
2019-02-15T10:16:16.399Z,102216.11
2019-02-15T10:18:47.717Z,102216.09
2019-02-15T10:21:19.080Z,102216.52
2019-02-15T10:23:50.461Z,102215.08
2019-02-15T10:26:23.537Z,102209.92
2019-02-15T10:28:54.921Z,102211.59
2019-02-15T10:31:26.645Z,102214.58
2019-02-15T10:33:57.984Z,102209.91
2019-02-15T10:36:29.347Z,102205.92
2019-02-15T10:39:00.659Z,102208.47
2019-02-15T10:41:33.535Z,102201.97
2019-02-15T10:44:04.911Z,102203.84
2019-02-15T10:46:38.055Z,102206.78
2019-02-15T10:49:09.323Z,102198.63
2019-02-15T10:51:40.635Z,102189.12
2019-02-15T10:54:11.996Z,102188.33
2019-02-15T10:56:43.457Z,102187.31
2019-02-15T10:59:15.619Z,102180.37
2019-02-15T11:01:47.279Z,102180.65
2019-02-15T11:04:18.676Z,102175.20
2019-02-15T11:06:50.380Z,102176.13
2019-02-15T11:09:21.778Z,102177.12
2019-02-15T11:11:53.054Z,102166.38
2019-02-15T11:14:24.392Z,102165.14
2019-02-15T11:16:55.867Z,102163.28
2019-02-15T11:19:27.196Z,102159.98
2019-02-15T11:21:58.467Z,102163.32
2019-02-15T11:24:29.843Z,102160.16
2019-02-15T11:27:01.105Z,102151.83
2019-02-15T11:29:32.511Z,102155.91
2019-02-15T11:32:03.857Z,102150.98
2019-02-15T11:34:37.317Z,102154.00
2019-02-15T11:37:08.887Z,102135.46
2019-02-15T11:39:43.930Z,102137.59
2019-02-15T11:42:15.330Z,102139.74
2019-02-15T11:44:46.639Z,102128.46
2019-02-15T11:47:17.894Z,102120.84
2019-02-15T11:49:49.225Z,102125.02
2019-02-15T11:52:20.581Z,102119.19
2019-02-15T11:54:52.032Z,102119.84
2019-02-15T11:57:23.578Z,102106.59
2019-02-15T11:59:55.017Z,102108.65
2019-02-15T12:02:27.524Z,102099.47
2019-02-15T12:04:58.845Z,102096.52
2019-02-15T12:07:30.174Z,102094.94
2019-02-15T12:10:01.662Z,102097.90
2019-02-15T12:12:33.117Z,102084.16
2019-02-15T12:15:06.467Z,102084.23
2019-02-15T12:17:37.889Z,102082.56
2019-02-15T12:20:12.509Z,102077.94
2019-02-15T12:22:43.849Z,102071.23
2019-02-15T12:25:15.229Z,102061.92
2019-02-15T12:27:46.567Z,102061.34
2019-02-15T12:30:18.207Z,102059.86
2019-02-15T12:32:49.637Z,102051.56
2019-02-15T12:35:21.071Z,102049.89
2019-02-15T12:37:52.445Z,102051.89
2019-02-15T12:40:23.756Z,102041.78
2019-02-15T12:42:55.044Z,102047.11
2019-02-15T12:45:26.561Z,102042.30
2019-02-15T12:47:59.861Z,102034.66
2019-02-15T12:50:31.259Z,102034.06
2019-02-15T12:53:02.608Z,102032.21
2019-02-15T12:55:33.916Z,102027.18
2019-02-15T12:58:05.263Z,102022.27
2019-02-15T13:00:36.699Z,102017.30
2019-02-15T13:03:08.051Z,102015.87
2019-02-15T13:05:39.397Z,102008.02
2019-02-15T13:08:10.866Z,102004.91
2019-02-15T13:10:43.547Z,102002.69
2019-02-15T13:13:14.978Z,101999.05
2019-02-15T13:15:46.622Z,101998.84
2019-02-15T13:18:18.133Z,101996.83
2019-02-15T13:20:49.486Z,101991.38
2019-02-15T13:23:20.988Z,101985.23
2019-02-15T13:25:52.357Z,101978.87
2019-02-15T13:28:23.838Z,101975.87
2019-02-15T13:30:55.291Z,101969.51
2019-02-15T13:33:26.684Z,101963.10
2019-02-15T13:35:58.170Z,101958.92
2019-02-15T13:38:29.663Z,101957.63
2019-02-15T13:41:01.115Z,101949.31
2019-02-15T13:43:32.491Z,101952.62
2019-02-15T13:46:04.101Z,101954.09
2019-02-15T13:48:36.725Z,101953.94
2019-02-15T13:51:08.106Z,101946.79
2019-02-15T13:53:39.503Z,101950.09
2019-02-15T13:56:10.962Z,101940.38
2019-02-15T13:58:43.997Z,101938.42
2019-02-15T14:01:15.501Z,101935.13
2019-02-15T14:03:47.243Z,101938.81
2019-02-15T14:06:18.697Z,101929.31
2019-02-15T14:08:50.074Z,101929.47
2019-02-15T14:11:21.516Z,101926.69
2019-02-15T14:13:52.988Z,101919.92
2019-02-15T14:16:24.367Z,101917.55
2019-02-15T14:18:55.821Z,101918.66
2019-02-15T14:21:27.240Z,101914.47
2019-02-15T14:24:01.201Z,101911.47
2019-02-15T14:26:37.186Z,101909.27
2019-02-15T14:29:13.189Z,101908.67
2019-02-15T14:31:46.114Z,101901.09
2019-02-15T14:34:17.482Z,101897.50
2019-02-15T14:36:49.049Z,101892.61
2019-02-15T14:39:28.324Z,101892.38
2019-02-15T14:42:00.824Z,101882.71
2019-02-15T14:44:32.373Z,101881.41
2019-02-15T14:47:03.735Z,101880.75
2019-02-15T14:49:35.113Z,101881.83
2019-02-15T14:52:06.470Z,101879.77
2019-02-15T14:54:38.011Z,101871.84
2019-02-15T14:57:09.734Z,101876.84
2019-02-15T14:59:41.136Z,101875.31
2019-02-15T15:02:12.529Z,101867.76
2019-02-15T15:04:43.818Z,101860.89
2019-02-15T15:07:15.187Z,101860.89
2019-02-15T15:09:46.491Z,101862.55
2019-02-15T15:12:17.769Z,101860.27
2019-02-15T15:14:49.120Z,101857.80
2019-02-15T15:17:20.450Z,101846.95
2019-02-15T15:19:51.778Z,101850.58
2019-02-15T15:22:23.068Z,101853.39
2019-02-15T15:24:54.695Z,101852.44
2019-02-15T15:27:27.621Z,101849.45
2019-02-15T15:29:59.045Z,101848.30
2019-02-15T15:32:30.593Z,101844.47
2019-02-15T15:35:02.120Z,101840.72
2019-02-15T15:37:33.449Z,101841.53
2019-02-15T15:40:08.438Z,101840.16
2019-02-15T15:42:39.896Z,101838.66
2019-02-15T15:45:13.263Z,101835.13
2019-02-15T15:47:44.726Z,101835.56
2019-02-15T15:50:16.205Z,101833.09
2019-02-15T15:52:47.549Z,101833.78
2019-02-15T15:55:18.982Z,101834.91
2019-02-15T15:57:50.408Z,101826.78
2019-02-15T16:00:21.806Z,101823.20
2019-02-15T16:02:53.259Z,101831.58
2019-02-15T16:05:24.732Z,101828.73
2019-02-15T16:07:56.143Z,101823.53
2019-02-15T16:10:27.430Z,101824.88
2019-02-15T16:12:58.876Z,101828.12
2019-02-15T16:15:30.496Z,101818.53
2019-02-15T16:18:02.105Z,101819.61
2019-02-15T16:20:33.522Z,101817.56
2019-02-15T16:23:04.867Z,101824.06
2019-02-15T16:25:36.295Z,101813.16
2019-02-15T16:28:07.654Z,101811.49
2019-02-15T16:30:39.200Z,101809.00
2019-02-15T16:33:10.748Z,101806.51
2019-02-15T16:35:42.060Z,101814.97
2019-02-15T16:38:14.981Z,101812.90
2019-02-15T16:40:51.437Z,101808.17
2019-02-15T16:43:22.888Z,101809.20
2019-02-15T16:45:54.341Z,101809.93
2019-02-15T16:48:25.692Z,101810.81
2019-02-15T16:50:57.062Z,101807.86
2019-02-15T16:53:28.437Z,101817.14
2019-02-15T16:55:59.910Z,101816.30
2019-02-15T16:58:31.356Z,101816.02
2019-02-15T17:01:02.884Z,101810.44
2019-02-15T17:03:35.485Z,101810.16
2019-02-15T17:06:06.932Z,101813.22
2019-02-15T17:08:38.454Z,101814.95
2019-02-15T17:11:11.897Z,101812.86
2019-02-15T17:13:42.937Z,101812.66
2019-02-15T17:16:14.323Z,101811.45
2019-02-15T17:18:51.599Z,101816.32
2019-02-15T17:21:18.671Z,101818.75
2019-02-15T17:23:51.816Z,101813.47
2019-02-15T17:26:23.165Z,101810.28
2019-02-15T17:28:54.568Z,101816.08
2019-02-15T17:31:25.880Z,101814.38
2019-02-15T17:33:57.213Z,101809.72
2019-02-15T17:36:28.562Z,101811.25
2019-02-15T17:39:00.212Z,101812.77
2019-02-15T17:41:33.178Z,101810.45
2019-02-15T17:44:04.561Z,101817.72
2019-02-15T17:46:35.960Z,101811.19
2019-02-15T17:49:07.284Z,101813.83
2019-02-15T17:51:38.791Z,101812.94
2019-02-15T17:54:10.360Z,101808.62
2019-02-15T17:56:41.738Z,101805.26
2019-02-15T17:59:13.258Z,101806.72
2019-02-15T18:01:44.682Z,101798.56
2019-02-15T18:04:16.076Z,101800.16
2019-02-15T18:06:47.432Z,101803.30
2019-02-15T18:09:18.749Z,101800.72
2019-02-15T18:11:51.021Z,101798.25
2019-02-15T18:14:24.106Z,101802.48
2019-02-15T18:16:55.670Z,101801.81
2019-02-15T18:19:26.992Z,101794.67
2019-02-15T18:21:58.464Z,101800.30
2019-02-15T18:24:29.790Z,101796.02
2019-02-15T18:27:01.272Z,101792.16
2019-02-15T18:29:32.942Z,101798.75
2019-02-15T18:32:04.366Z,101799.80
2019-02-15T18:34:35.996Z,101798.00
2019-02-15T18:37:07.610Z,101796.96
2019-02-15T18:39:38.967Z,101796.48
2019-02-15T18:42:10.303Z,101802.72
2019-02-15T18:44:41.761Z,101796.70
2019-02-15T18:47:13.193Z,101797.25
2019-02-15T18:49:44.644Z,101798.91
2019-02-15T18:52:16.076Z,101792.75
2019-02-15T18:54:47.399Z,101795.52
2019-02-15T18:57:18.879Z,101793.99
2019-02-15T18:59:50.266Z,101789.91
2019-02-15T19:02:23.204Z,101788.38
2019-02-15T19:04:54.559Z,101788.59
2019-02-15T19:07:26.010Z,101782.63
2019-02-15T19:09:57.397Z,101787.06
2019-02-15T19:12:28.815Z,101787.42
2019-02-15T19:15:04.025Z,101778.06
2019-02-15T19:17:35.605Z,101779.69
2019-02-15T19:20:12.950Z,101781.12
2019-02-15T19:22:44.284Z,101777.30
2019-02-15T19:25:21.789Z,101778.25
2019-02-15T19:27:53.211Z,101777.72
2019-02-15T19:30:35.534Z,101780.05
2019-02-15T19:33:09.720Z,101771.71
2019-02-15T19:35:41.229Z,101771.07
2019-02-15T19:38:13.053Z,101767.08
2019-02-15T19:40:48.057Z,101760.95
2019-02-15T19:43:19.582Z,101759.34
2019-02-15T19:45:58.460Z,101760.65
2019-02-15T19:48:30.375Z,101758.92
2019-02-15T19:51:01.894Z,101768.11
2019-02-15T19:53:33.343Z,101767.33
2019-02-15T19:56:04.767Z,101765.02
2019-02-15T19:58:36.211Z,101769.62
2019-02-15T20:01:08.196Z,101763.73
2019-02-15T20:03:40.756Z,101763.98
2019-02-15T20:06:14.410Z,101761.11
2019-02-15T20:08:46.273Z,101752.84
2019-02-15T20:11:17.654Z,101761.03
2019-02-15T20:13:50.028Z,101761.59
2019-02-15T20:16:22.435Z,101758.97
2019-02-15T20:18:54.356Z,101755.86
2019-02-15T20:21:26.477Z,101747.48
2019-02-15T20:23:57.920Z,101754.83
2019-02-15T20:26:29.341Z,101746.78
2019-02-15T20:29:03.914Z,101749.46
2019-02-15T20:31:35.552Z,101742.57
2019-02-15T20:34:07.029Z,101743.91
2019-02-15T20:36:41.949Z,101747.48
2019-02-15T20:39:29.381Z,101752.34
2019-02-15T20:42:00.813Z,101740.62
2019-02-15T20:44:32.313Z,101755.02
2019-02-15T20:47:05.503Z,101753.09
2019-02-15T20:49:37.981Z,101750.48
2019-02-15T20:52:09.639Z,101753.14
2019-02-15T20:54:42.967Z,101753.00
2019-02-15T20:57:14.355Z,101755.53
2019-02-15T20:59:47.568Z,101755.94
2019-02-15T21:02:19.035Z,101752.20
2019-02-15T21:04:50.485Z,101756.59
2019-02-15T21:07:22.937Z,101748.16
2019-02-15T21:09:59.257Z,101751.63
2019-02-15T21:12:30.674Z,101756.53
2019-02-15T21:15:04.197Z,101751.72
2019-02-15T21:17:35.617Z,101757.76
2019-02-15T21:20:13.874Z,101751.63
2019-02-15T21:22:46.919Z,101747.47
2019-02-15T21:25:19.267Z,101751.30
2019-02-15T21:27:51.297Z,101749.82
2019-02-15T21:30:24.797Z,101752.34
2019-02-15T21:32:56.331Z,101751.81
2019-02-15T21:35:27.748Z,101752.58
2019-02-15T21:37:59.205Z,101751.72
2019-02-15T21:40:30.584Z,101753.52
2019-02-15T21:43:02.059Z,101755.78
2019-02-15T21:45:33.470Z,101761.77
2019-02-15T21:48:04.949Z,101758.48
2019-02-15T21:50:36.428Z,101762.81
2019-02-15T21:53:07.943Z,101761.95
2019-02-15T21:55:39.363Z,101760.02
2019-02-15T21:58:10.701Z,101755.10
2019-02-15T22:00:42.154Z,101753.42
2019-02-15T22:03:13.554Z,101749.36
2019-02-15T22:05:44.947Z,101754.55
2019-02-15T22:08:17.301Z,101747.88
2019-02-15T22:10:49.550Z,101753.34
2019-02-15T22:13:20.882Z,101742.78
2019-02-15T22:15:52.280Z,101744.00
2019-02-15T22:18:23.749Z,101740.31
2019-02-15T22:20:55.005Z,101734.55
2019-02-15T22:23:26.488Z,101737.83
2019-02-15T22:25:57.772Z,101731.48
2019-02-15T22:28:29.216Z,101733.14
2019-02-15T22:31:00.551Z,101729.98
2019-02-15T22:33:32.010Z,101723.91
2019-02-15T22:36:03.345Z,101724.77
2019-02-15T22:38:34.744Z,101728.33
2019-02-15T22:41:10.762Z,101721.52
2019-02-15T22:43:43.271Z,101724.36
2019-02-15T22:46:14.634Z,101725.94
2019-02-15T22:48:46.275Z,101724.62
2019-02-15T22:51:17.775Z,101722.39
2019-02-15T22:53:50.043Z,101724.29
2019-02-15T22:56:21.524Z,101729.11
2019-02-15T22:58:52.892Z,101722.58
2019-02-15T23:01:24.451Z,101720.68
2019-02-15T23:03:56.156Z,101717.79
2019-02-15T23:06:27.455Z,101713.09
2019-02-15T23:08:58.835Z,101714.63
2019-02-15T23:11:30.205Z,101718.73
2019-02-15T23:14:01.491Z,101715.43
2019-02-15T23:16:32.829Z,101712.16
2019-02-15T23:19:04.278Z,101709.74
2019-02-15T23:21:35.534Z,101715.30
2019-02-15T23:24:06.978Z,101713.09
2019-02-15T23:26:39.460Z,101712.41
2019-02-15T23:29:10.917Z,101710.55
2019-02-15T23:31:42.387Z,101711.85
2019-02-15T23:34:13.813Z,101714.39
2019-02-15T23:36:45.438Z,101714.83
2019-02-15T23:39:16.771Z,101709.91
2019-02-15T23:41:48.070Z,101712.62
2019-02-15T23:44:19.424Z,101711.62
2019-02-15T23:46:50.675Z,101709.72
2019-02-15T23:49:21.999Z,101705.00
2019-02-15T23:51:53.330Z,101703.00
2019-02-15T23:54:24.736Z,101708.53
2019-02-15T23:56:56.075Z,101703.50
2019-02-15T23:59:27.444Z,101704.31
